Bookmark and Share
Track history (hours):
 

Hikarimaru No.17

Last reported at 2014-Apr-16 23:25 UTC. Time now 2014-Apr-17 04:01 UTC.
Position N 34°33' E 135°25'.

Length 105 m; draft 5.6 m.

Type: Tanker. MMSI: 431000984.

NotesDate/timePositionNaut miles runAvg speedWind from/ knotsBaromVisibWave heightAir tempDewpointWater temp
2014-Apr-16 23:25N 34°33' E 135°25'4 3.8
2014-Apr-16 22:21N 34°32' E 135°20'0 0.0
2014-Apr-16 21:15N 34°32' E 135°20'0 0.1
2014-Apr-16 20:33N 34°32' E 135°20'0 0.0
2014-Apr-16 19:33N 34°32' E 135°20'0 0.0
2014-Apr-16 18:27N 34°32' E 135°20'0 0.1
2014-Apr-16 17:33N 34°32' E 135°20'0 0.0
2014-Apr-16 16:33N 34°32' E 135°20'0 0.0
2014-Apr-16 15:33N 34°32' E 135°20'0 0.0
2014-Apr-16 14:33N 34°32' E 135°20'0 0.0
2014-Apr-16 13:27N 34°32' E 135°20'0 0.0
2014-Apr-16 12:27N 34°32' E 135°20'0 0.0
2014-Apr-16 11:21N 34°32' E 135°20'0 0.0
2014-Apr-16 10:27N 34°32' E 135°20'0 0.1
2014-Apr-16 09:33N 34°32' E 135°20'9 9.3
2014-Apr-16 08:33N 34°26' E 135°11'1413.6
2014-Apr-16 07:33N 34°17' E 134°59'1010.0
2014-Apr-16 06:32N 34°10' E 135°08'0 0.0
2014-Apr-16 05:32N 34°10' E 135°08'0 0.0
2014-Apr-16 04:32N 34°10' E 135°08'3 2.5
2014-Apr-16 03:27N 34°12' E 135°07'2 1.9
2014-Apr-16 02:31N 34°13' E 135°09'0 0.0
2014-Apr-16 01:28N 34°13' E 135°09'0 0.0
2014-Apr-16 00:28N 34°13' E 135°09'2 1.8
2014-Apr-15 23:33N 34°12' E 135°07'0 0.2
2014-Apr-15 22:32N 34°12' E 135°07'0 0.0
2014-Apr-15 21:29N 34°12' E 135°07'0 0.0
2014-Apr-15 20:32N 34°12' E 135°07'0 0.0
2014-Apr-15 19:32N 34°12' E 135°07'0 0.0
2014-Apr-15 18:32N 34°12' E 135°07'0 0.0
2014-Apr-15 17:32N 34°12' E 135°07'0 0.0
2014-Apr-15 16:32N 34°12' E 135°07'0 0.0
2014-Apr-15 15:32N 34°12' E 135°07'0 0.0
2014-Apr-15 14:32N 34°12' E 135°07'0 0.0
2014-Apr-15 12:32N 34°12' E 135°07'0 0.1
2014-Apr-15 11:32N 34°12' E 135°07'0 0.0
2014-Apr-15 10:32N 34°12' E 135°07'0 0.0
2014-Apr-15 09:32N 34°12' E 135°07'0 0.0
2014-Apr-15 08:32N 34°12' E 135°07'0 0.1
2014-Apr-15 07:32N 34°12' E 135°07'0 0.0
2014-Apr-15 06:32N 34°12' E 135°07'0 0.0
2014-Apr-15 05:32N 34°12' E 135°07'0 0.0
2014-Apr-15 03:32N 34°12' E 135°07'5 4.6
2014-Apr-15 02:33N 34°13' E 135°02'1313.2
2014-Apr-15 01:33N 34°27' E 135°01'1010.3
2014-Apr-15 00:33N 34°37' E 134°58'  
2014-Apr-12 05:07N 34°38' E 134°53'711.0
2014-Apr-12 04:30N 34°37' E 135°01'9 9.2
2014-Apr-12 03:34N 34°29' E 135°03'1312.1
2014-Apr-12 02:30N 34°17' E 134°59'1211.4
2014-Apr-12 01:30N 34°07' E 135°07'0 0.0
2014-Apr-11 21:28N 34°07' E 135°07'6 6.4
2014-Apr-11 20:33N 34°13' E 135°09'0 0.0
2014-Apr-11 19:33N 34°13' E 135°09'0 0.0
2014-Apr-11 18:33N 34°13' E 135°09'0 0.0
2014-Apr-11 17:33N 34°13' E 135°09'0 0.0
2014-Apr-11 16:33N 34°13' E 135°09'0 0.0
2014-Apr-11 15:33N 34°13' E 135°09'0 0.0
2014-Apr-11 14:33N 34°13' E 135°09'0 0.0
2014-Apr-11 13:33N 34°13' E 135°09'0 0.0
2014-Apr-11 12:33N 34°13' E 135°09'0 0.0
2014-Apr-11 11:33N 34°13' E 135°09'0 0.0
2014-Apr-11 10:33N 34°13' E 135°09'0 0.0
2014-Apr-11 09:33N 34°13' E 135°09'0 0.0
2014-Apr-11 08:33N 34°13' E 135°09'0 0.0
2014-Apr-11 07:33N 34°13' E 135°09'0 0.0
2014-Apr-11 06:33N 34°13' E 135°09'0 0.0
2014-Apr-11 05:33N 34°13' E 135°09'0 0.0
2014-Apr-11 04:33N 34°13' E 135°09'0 0.0
2014-Apr-11 03:33N 34°13' E 135°09'0 0.0
2014-Apr-11 02:33N 34°13' E 135°09'0 0.0
2014-Apr-11 01:33N 34°13' E 135°09'0 0.0
2014-Apr-11 00:33N 34°13' E 135°09'2 1.6
2014-Apr-10 23:33N 34°12' E 135°07'3 2.7
2014-Apr-10 22:30N 34°10' E 135°09'0 0.0
2014-Apr-10 21:33N 34°10' E 135°09'0 0.0
2014-Apr-10 20:30N 34°10' E 135°09'0 0.0
2014-Apr-10 19:30N 34°10' E 135°09'0 0.0
2014-Apr-10 18:30N 34°10' E 135°09'0 0.0
2014-Apr-10 17:27N 34°10' E 135°09'0 0.0
2014-Apr-10 16:33N 34°10' E 135°09'0 0.0
2014-Apr-10 15:30N 34°10' E 135°09'0 0.0
2014-Apr-10 14:30N 34°10' E 135°09'0 0.1
2014-Apr-10 13:33N 34°10' E 135°09'0 0.0
2014-Apr-10 12:33N 34°10' E 135°09'0 0.0
2014-Apr-10 11:27N 34°10' E 135°09'0 0.0
2014-Apr-10 10:30N 34°10' E 135°09'0 0.0
2014-Apr-10 09:33N 34°10' E 135°09'0 0.0
2014-Apr-10 08:30N 34°10' E 135°09'1 0.9
2014-Apr-10 07:33N 34°10' E 135°08'1311.8
2014-Apr-10 06:30N 34°21' E 134°60'1213.2
2014-Apr-10 05:34N 34°33' E 135°03'1211.6
2014-Apr-10 04:33N 34°38' E 134°50'7 0.2
2014-Apr-08 23:04N 34°40' E 134°42'612.0
2014-Apr-08 22:32N 34°39' E 134°49'1312.8
2014-Apr-08 21:33N 34°36' E 135°04'1312.8
2014-Apr-08 20:31N 34°23' E 135°01'1313.3
2014-Apr-08 19:34N 34°10' E 135°00'  

Dump ship's entire track history

sailing weather and tide predictions

Hikarimaru No.17 — JD2956 — position and weather